Mangotsfield, United Kingdom
Current Conditions -  °F | °C
As of 11:50 PM on Wednesday 26 Nov 2014 (Local Time) from EGGD Reporting Station
Moderate Fog Moderate Fog  
Wind Chill: 43°   Ceiling: Unl
Heat Index: 43°   Visibility: 0.18mi
Dew Point: 43°   Wind: 2mph
Humidity: 100%   Direction: 30°NNE
Pressure: 29.74"   Gusts: NA
Location:  51.49°N, 2.5°W
Report Text: EGGD 262350Z 03002KT 0300 R27/0550 FG VV/// 06/06 Q1007
Loading
Personal Weather Stations






























Interactive Weather Map New forecast layout! Learn more

10-Day Weather Forecast

Advertisements
Track Severe Weather on mobile